Time;durP1;ratioP1;P1;durP2;ratioP2;P2;SDS_P1;SDS_P2;PMS_P1;PMS_P2;Temp;Humidity;BMP_temperature;BMP_pressure;BME280_temperature;BME280_humidity;BME280_pressure;Samples;Min_cycle;Max_cycle;Signal;HPM_P1;HPM_P2
2023/04/23 00:00:05;;;;;;;57.33;40.30;;;;;;;7.55;100.00;100624.06;4990544;28;20486;-68
2023/04/23 00:02:32;;;;;;;60.72;42.78;;;;;;;7.54;100.00;100622.28;4990789;28;20451;-68
2023/04/23 00:05:03;;;;;;;56.70;41.13;;;;;;;7.51;100.00;100619.56;4989788;28;20467;-67
2023/04/23 00:07:31;;;;;;;59.95;42.40;;;;;;;7.48;100.00;100615.19;4959000;28;20025;-68
2023/04/23 00:09:58;;;;;;;57.85;42.00;;;;;;;7.44;100.00;100610.72;4985181;28;20050;-67
2023/04/23 00:12:23;;;;;;;60.63;43.88;;;;;;;7.42;100.00;100618.38;4991026;28;20022;-68
2023/04/23 00:14:49;;;;;;;58.50;41.55;;;;;;;7.39;100.00;100607.97;4973448;28;20546;-68
2023/04/23 00:17:15;;;;;;;54.03;39.13;;;;;;;7.38;100.00;100607.88;4951793;28;20023;-67
2023/04/23 00:19:40;;;;;;;54.72;38.08;;;;;;;7.33;100.00;100606.00;4952309;28;20030;-68
2023/04/23 00:22:05;;;;;;;53.92;39.17;;;;;;;7.30;100.00;100607.56;4952028;28;20094;-68
2023/04/23 00:24:32;;;;;;;51.80;37.90;;;;;;;7.27;100.00;100607.41;4967319;28;20027;-68
2023/04/23 00:26:58;;;;;;;58.70;39.13;;;;;;;7.25;100.00;100603.94;4979538;28;20023;-68
2023/04/23 00:29:23;;;;;;;62.75;41.97;;;;;;;7.24;100.00;100604.72;4952404;28;20027;-68
2023/04/23 00:31:48;;;;;;;58.00;39.97;;;;;;;7.23;100.00;100601.28;4962291;28;20086;-68
2023/04/23 00:34:14;;;;;;;54.22;38.95;;;;;;;7.21;100.00;100601.19;4990279;28;20454;-67
2023/04/23 00:36:39;;;;;;;58.35;40.47;;;;;;;7.20;100.00;100602.03;4988965;28;20026;-68
2023/04/23 00:39:04;;;;;;;52.90;39.35;;;;;;;7.20;100.00;100601.13;4990085;28;20383;-68
2023/04/23 00:41:30;;;;;;;58.25;39.80;;;;;;;7.19;100.00;100591.66;4988034;28;20541;-67
2023/04/23 00:43:56;;;;;;;50.92;38.08;;;;;;;7.17;100.00;100586.44;4988290;28;20442;-68
2023/04/23 00:46:23;;;;;;;52.17;37.83;;;;;;;7.15;100.00;100577.75;4988289;28;20018;-68
2023/04/23 00:48:49;;;;;;;53.00;38.65;;;;;;;7.14;100.00;100573.41;4989731;28;20402;-67
2023/04/23 00:51:15;;;;;;;51.15;37.15;;;;;;;7.13;100.00;100581.06;4988013;28;20080;-67
2023/04/23 00:53:40;;;;;;;50.65;38.22;;;;;;;7.13;100.00;100578.50;4988799;28;20019;-68
2023/04/23 00:56:07;;;;;;;44.47;34.40;;;;;;;7.11;100.00;100577.53;4988568;28;20266;-68
2023/04/23 00:58:33;;;;;;;53.20;36.47;;;;;;;7.09;100.00;100568.06;4988094;28;20137;-67
2023/04/23 01:00:58;;;;;;;50.80;37.53;;;;;;;7.09;100.00;100562.03;4989073;28;20109;-68
2023/04/23 01:03:25;;;;;;;52.80;38.38;;;;;;;7.08;100.00;100565.44;4988460;28;21026;-68
2023/04/23 01:05:51;;;;;;;47.97;35.55;;;;;;;7.08;100.00;100566.31;4989022;28;20022;-68
2023/04/23 01:08:17;;;;;;;53.22;38.90;;;;;;;7.08;100.00;100566.31;4988583;28;20056;-68
2023/04/23 01:10:44;;;;;;;53.95;39.85;;;;;;;7.09;100.00;100556.88;4989899;28;20026;-68
2023/04/23 01:13:11;;;;;;;50.53;38.05;;;;;;;7.09;100.00;100562.03;4987694;28;20554;-68
2023/04/23 01:15:40;;;;;;;51.40;37.35;;;;;;;7.09;100.00;100557.75;4989140;28;20418;-68
2023/04/23 01:18:09;;;;;;;49.97;37.22;;;;;;;7.07;100.00;100558.50;4988920;28;20042;-68
2023/04/23 01:20:36;;;;;;;51.50;37.10;;;;;;;7.05;100.00;100550.72;4989048;28;20378;-68
2023/04/23 01:23:03;;;;;;;50.20;38.30;;;;;;;7.07;100.00;100550.75;4987434;28;20019;-68
2023/04/23 01:25:28;;;;;;;48.50;36.10;;;;;;;7.06;100.00;100552.50;4987830;28;20486;-68
2023/04/23 01:27:55;;;;;;;51.08;37.50;;;;;;;7.05;100.00;100550.72;4989824;28;20026;-67
2023/04/23 01:30:20;;;;;;;50.38;38.35;;;;;;;7.05;100.00;100552.44;4951386;28;20061;-68
2023/04/23 01:32:46;;;;;;;45.80;35.45;;;;;;;7.04;100.00;100553.22;4951830;28;20066;-68
2023/04/23 01:35:12;;;;;;;49.95;38.40;;;;;;;7.01;100.00;100554.00;4957832;28;20459;-68
2023/04/23 01:37:37;;;;;;;48.78;35.63;;;;;;;7.04;100.00;100553.22;4969838;28;20046;-67
2023/04/23 01:40:03;;;;;;;44.38;34.80;;;;;;;7.01;100.00;100542.78;4951837;28;20084;-68
2023/04/23 01:42:28;;;;;;;45.95;36.40;;;;;;;7.01;100.00;100540.22;4951472;28;20023;-67
2023/04/23 01:44:53;;;;;;;48.80;36.47;;;;;;;7.00;100.00;100546.19;4958257;28;20050;-68
2023/04/23 01:47:19;;;;;;;49.33;36.90;;;;;;;6.98;100.00;100538.38;4969493;28;20106;-67
2023/04/23 01:49:44;;;;;;;47.15;35.50;;;;;;;6.98;100.00;100540.97;4970569;28;20033;-68
2023/04/23 01:52:10;;;;;;;47.45;36.55;;;;;;;6.94;100.00;100536.50;4956565;28;20034;-67
2023/04/23 01:54:35;;;;;;;46.20;34.80;;;;;;;6.96;100.00;100540.91;4951070;28;20031;-67
2023/04/23 01:57:01;;;;;;;42.03;34.38;;;;;;;6.97;100.00;100537.53;4963625;28;20033;-68
2023/04/23 01:59:27;;;;;;;43.53;34.90;;;;;;;6.98;100.00;100548.69;4965307;28;20026;-67
2023/04/23 02:01:52;;;;;;;47.35;35.42;;;;;;;6.99;100.00;100544.41;4988814;28;20089;-67
2023/04/23 02:04:18;;;;;;;45.85;36.03;;;;;;;7.00;100.00;100541.06;4989505;28;20034;-67
2023/04/23 02:06:46;;;;;;;45.40;34.85;;;;;;;7.01;100.00;100542.78;4988353;28;20332;-68
2023/04/23 02:09:11;;;;;;;45.03;34.50;;;;;;;7.01;100.00;100542.78;4987895;28;20483;-67
2023/04/23 02:11:36;;;;;;;43.58;34.90;;;;;;;7.02;100.00;100539.38;4985856;28;20030;-68
2023/04/23 02:14:03;;;;;;;42.10;33.75;;;;;;;7.00;100.00;100536.75;4969251;28;20023;-68
2023/04/23 02:16:28;;;;;;;47.95;35.70;;;;;;;7.00;100.00;100533.31;4979090;28;20042;-67
2023/04/23 02:18:54;;;;;;;46.42;35.50;;;;;;;6.95;100.00;100528.84;4952036;28;20507;-68
2023/04/23 02:21:21;;;;;;;40.83;33.60;;;;;;;6.95;100.00;100531.41;4952367;28;20027;-68
2023/04/23 02:23:46;;;;;;;42.78;33.85;;;;;;;6.94;100.00;100523.63;4951184;28;20476;-68
2023/04/23 02:26:11;;;;;;;42.83;34.70;;;;;;;6.94;100.00;100513.31;4977917;28;20026;-67
2023/04/23 02:28:36;;;;;;;42.67;33.88;;;;;;;6.92;100.00;100518.41;4983642;28;20892;-68
2023/04/23 02:31:02;;;;;;;41.45;33.22;;;;;;;6.92;100.00;100522.69;4982000;28;20030;-68
2023/04/23 02:33:27;;;;;;;43.88;33.20;;;;;;;6.95;100.00;100527.94;4983269;28;20014;-67
2023/04/23 02:35:53;;;;;;;40.83;32.97;;;;;;;6.97;100.00;100532.38;4983547;28;20540;-68
2023/04/23 02:38:18;;;;;;;41.03;33.20;;;;;;;7.00;100.00;100525.59;4983047;28;20022;-66
2023/04/23 02:40:43;;;;;;;41.30;32.10;;;;;;;7.03;100.00;100524.03;4983902;28;20021;-66
2023/04/23 02:43:08;;;;;;;40.38;33.65;;;;;;;7.05;100.00;100524.09;4966498;28;20015;-67
2023/04/23 02:45:34;;;;;;;37.80;32.40;;;;;;;7.06;100.00;100519.00;4975117;28;20014;-65
2023/04/23 02:47:59;;;;;;;39.10;30.98;;;;;;;7.07;100.00;100528.47;4982141;28;20026;-66
2023/04/23 02:50:25;;;;;;;35.45;29.08;;;;;;;7.08;100.00;100522.50;4979383;28;20049;-65
2023/04/23 02:52:50;;;;;;;39.38;31.23;;;;;;;7.08;100.00;100519.03;4972529;28;20388;-66
2023/04/23 02:55:15;;;;;;;41.08;31.92;;;;;;;7.07;100.00;100522.41;4979375;28;20037;-66
2023/04/23 02:57:41;;;;;;;38.00;30.58;;;;;;;7.07;100.00;100522.41;4982732;28;20088;-65
2023/04/23 03:00:07;;;;;;;36.30;30.20;;;;;;;7.07;100.00;100522.41;4969021;28;20022;-66
2023/04/23 03:02:33;;;;;;;34.03;29.30;;;;;;;7.06;100.00;100530.97;4984213;28;20033;-65
2023/04/23 03:04:58;;;;;;;35.30;30.52;;;;;;;7.05;100.00;100522.38;4979317;28;20026;-66
2023/04/23 03:07:23;;;;;;;35.55;29.65;;;;;;;7.06;100.00;100516.41;4986173;28;20019;-65
2023/04/23 03:09:49;;;;;;;35.30;30.75;;;;;;;7.07;100.00;100519.84;4968929;28;20379;-66
2023/04/23 03:12:14;;;;;;;34.45;29.85;;;;;;;7.08;100.00;100519.94;4986036;28;20022;-65
2023/04/23 03:14:40;;;;;;;36.97;31.17;;;;;;;7.09;100.00;100511.38;4980380;28;20023;-66
2023/04/23 03:17:05;;;;;;;40.28;31.42;;;;;;;7.09;100.00;100503.66;4986252;28;20042;-66
2023/04/23 03:19:32;;;;;;;35.97;29.92;;;;;;;7.13;100.00;100514.97;4979746;28;20026;-66
2023/04/23 03:21:57;;;;;;;36.03;30.92;;;;;;;7.13;100.00;100501.19;4975224;28;20375;-65
2023/04/23 03:24:23;;;;;;;37.60;30.38;;;;;;;7.13;100.00;100501.19;4980507;28;20023;-65
2023/04/23 03:26:48;;;;;;;36.90;30.40;;;;;;;7.09;100.00;100495.91;4991728;28;20069;-65
2023/04/23 03:29:13;;;;;;;40.63;30.75;;;;;;;7.09;100.00;100501.06;4992526;28;20049;-65
2023/04/23 03:31:39;;;;;;;35.10;29.52;;;;;;;7.09;100.00;100500.19;4991331;28;20057;-66
2023/04/23 03:34:05;;;;;;;33.38;29.08;;;;;;;7.07;100.00;100501.81;4991935;28;20434;-66
2023/04/23 03:36:31;;;;;;;34.83;29.27;;;;;;;7.10;100.00;100501.97;4991138;28;20019;-66
2023/04/23 03:38:56;;;;;;;33.20;29.33;;;;;;;7.12;100.00;100507.16;4991573;28;20510;-66
2023/04/23 03:41:21;;;;;;;33.97;29.50;;;;;;;7.14;100.00;100506.41;4990072;28;20025;-66
2023/04/23 03:43:47;;;;;;;34.40;28.00;;;;;;;7.15;100.00;100492.72;4991037;28;20033;-66
2023/04/23 03:46:12;;;;;;;36.33;29.52;;;;;;;7.19;100.00;100502.34;4977767;28;20014;-66
2023/04/23 03:48:37;;;;;;;34.63;27.42;;;;;;;7.20;100.00;100496.34;4991641;28;20026;-66
2023/04/23 03:51:03;;;;;;;33.30;28.67;;;;;;;7.25;100.00;100504.25;4990517;28;20019;-66
2023/04/23 03:53:28;;;;;;;34.47;27.90;;;;;;;7.27;100.00;100497.47;4991161;28;20387;-66
2023/04/23 03:55:53;;;;;;;31.88;28.42;;;;;;;7.31;100.00;100490.75;4977314;28;20018;-66
2023/04/23 03:58:18;;;;;;;34.95;28.00;;;;;;;7.37;100.00;100492.69;4992177;28;20027;-66
2023/04/23 04:00:44;;;;;;;30.60;26.92;;;;;;;7.45;100.00;100492.16;4990969;28;20105;-66
2023/04/23 04:03:09;;;;;;;30.73;26.30;;;;;;;7.52;100.00;100492.44;4991884;28;20170;-65
2023/04/23 04:05:35;;;;;;;29.20;25.48;;;;;;;7.56;100.00;100496.84;4990874;28;20097;-66
2023/04/23 04:08:00;;;;;;;28.67;25.55;;;;;;;7.62;100.00;100494.53;4990982;28;20129;-66
2023/04/23 04:10:26;;;;;;;29.58;26.38;;;;;;;7.66;100.00;100498.97;4977727;28;20573;-66
2023/04/23 04:12:51;;;;;;;28.88;25.77;;;;;;;7.69;100.00;100498.22;4991313;28;20125;-66
2023/04/23 04:15:19;;;;;;;27.85;24.70;;;;;;;7.72;100.00;100502.63;4977865;28;20070;-66
2023/04/23 04:17:44;;;;;;;27.92;24.88;;;;;;;7.75;100.00;100500.16;4991090;28;20026;-66
2023/04/23 04:20:10;;;;;;;30.15;25.35;;;;;;;7.76;100.00;100499.31;4976863;28;20020;-66
2023/04/23 04:22:36;;;;;;;27.10;24.33;;;;;;;7.78;100.00;100493.41;4963744;28;20023;-66
2023/04/23 04:25:02;;;;;;;27.50;24.25;;;;;;;7.77;100.00;100496.81;4972885;28;20647;-65
2023/04/23 04:27:27;;;;;;;28.13;24.42;;;;;;;7.79;100.00;100502.91;4989184;28;20015;-65
2023/04/23 04:29:52;;;;;;;27.00;23.85;;;;;;;7.82;100.00;100502.16;4988445;28;20425;-66
2023/04/23 04:32:18;;;;;;;28.40;23.88;;;;;;;7.82;100.00;100507.31;4988968;28;20461;-66
2023/04/23 04:34:43;;;;;;;28.15;24.48;;;;;;;7.81;100.00;100505.53;4989402;28;20072;-66
2023/04/23 04:37:10;;;;;;;27.13;23.35;;;;;;;7.81;100.00;100506.44;4990271;28;20352;-65
2023/04/23 04:39:35;;;;;;;29.40;23.90;;;;;;;7.84;100.00;100502.22;4989247;28;20054;-66
2023/04/23 04:42:01;;;;;;;26.30;23.70;;;;;;;7.83;100.00;100511.66;4989908;28;20064;-66
2023/04/23 04:44:27;;;;;;;26.75;23.92;;;;;;;7.81;100.00;100492.63;4989267;28;20022;-66
2023/04/23 04:46:53;;;;;;;26.75;23.92;;;;;;;7.82;100.00;100499.56;4989924;28;20026;-65
2023/04/23 04:49:18;;;;;;;27.20;24.23;;;;;;;7.82;100.00;100494.41;4989900;28;20399;-66
2023/04/23 04:51:43;;;;;;;26.67;23.75;;;;;;;7.83;100.00;100496.16;4990121;28;20030;-66
2023/04/23 04:54:09;;;;;;;26.48;23.77;;;;;;;7.83;100.00;100500.44;4988585;28;20429;-65
2023/04/23 04:56:34;;;;;;;27.48;24.58;;;;;;;7.83;100.00;100501.31;4990131;28;20143;-66
2023/04/23 04:59:01;;;;;;;26.13;23.45;;;;;;;7.80;100.00;100502.09;4988249;28;20018;-66
2023/04/23 05:01:27;;;;;;;24.83;22.17;;;;;;;7.81;100.00;100503.84;4989646;28;20045;-66
2023/04/23 05:03:53;;;;;;;25.27;22.70;;;;;;;7.80;100.00;100502.09;4987702;28;20532;-65
2023/04/23 05:06:18;;;;;;;23.85;21.30;;;;;;;7.80;100.00;100507.25;4989503;28;20314;-66
2023/04/23 05:08:46;;;;;;;26.05;22.45;;;;;;;7.78;100.00;100510.59;4980093;28;20070;-65
2023/04/23 05:11:13;;;;;;;24.73;22.20;;;;;;;7.76;100.00;100505.38;4961025;28;20089;-66
2023/04/23 05:13:39;;;;;;;28.02;22.98;;;;;;;7.77;100.00;100508.84;4955172;28;20114;-65
2023/04/23 05:16:05;;;;;;;26.23;22.48;;;;;;;7.79;100.00;100504.59;4981704;28;20154;-66
2023/04/23 05:18:30;;;;;;;24.65;22.10;;;;;;;7.84;100.00;100500.53;4987353;28;20084;-66
2023/04/23 05:20:55;;;;;;;25.48;22.98;;;;;;;7.88;100.00;100504.94;4960180;28;20194;-66
2023/04/23 05:23:20;;;;;;;26.95;23.73;;;;;;;7.94;100.00;100504.31;4975040;28;20019;-66
2023/04/23 05:25:46;;;;;;;25.50;22.23;;;;;;;8.00;100.00;100506.25;4977113;28;20023;-66
2023/04/23 05:28:11;;;;;;;25.45;22.75;;;;;;;8.04;100.00;100511.56;4970583;28;20030;-66
2023/04/23 05:30:36;;;;;;;25.70;22.90;;;;;;;8.09;100.00;100511.75;4969712;28;20038;-66
2023/04/23 05:33:01;;;;;;;25.60;22.98;;;;;;;8.15;100.00;100514.53;4970712;28;20464;-65
2023/04/23 05:35:27;;;;;;;25.88;22.25;;;;;;;8.20;100.00;100519.00;4979711;28;20101;-67
2023/04/23 05:37:52;;;;;;;24.08;21.40;;;;;;;8.25;100.00;100515.78;4970399;28;20870;-66
2023/04/23 05:40:17;;;;;;;25.50;22.73;;;;;;;8.31;100.00;100515.09;4961661;28;20313;-66
2023/04/23 05:42:43;;;;;;;23.80;21.30;;;;;;;8.35;100.00;100521.25;4958531;28;20077;-66
2023/04/23 05:45:08;;;;;;;24.65;22.05;;;;;;;8.37;100.00;100515.34;4968628;28;20691;-66
2023/04/23 05:47:34;;;;;;;23.98;21.02;;;;;;;8.40;100.00;100510.28;4968972;28;20023;-66
2023/04/23 05:50:00;;;;;;;21.38;19.17;;;;;;;8.44;100.00;100506.09;4988060;28;20025;-66
2023/04/23 05:52:25;;;;;;;23.15;20.60;;;;;;;8.46;100.00;100503.56;4976419;28;20057;-66
2023/04/23 05:54:51;;;;;;;22.52;20.02;;;;;;;8.51;100.00;100504.59;4980945;28;20093;-66
2023/04/23 05:57:16;;;;;;;21.48;19.30;;;;;;;8.61;100.00;100508.44;4982372;28;20130;-66
2023/04/23 05:59:42;;;;;;;22.02;19.58;;;;;;;8.72;100.00;100496.78;4978397;28;20065;-66
2023/04/23 06:02:09;;;;;;;20.83;18.73;;;;;;;8.82;100.00;100505.69;4973364;28;20033;-66
2023/04/23 06:04:35;;;;;;;21.02;18.92;;;;;;;8.91;100.00;100510.31;4977822;28;20026;-66
2023/04/23 06:07:00;;;;;;;19.55;17.75;;;;;;;9.02;100.00;100508.06;4988303;28;20038;-66
2023/04/23 06:09:26;;;;;;;18.17;16.38;;;;;;;9.11;100.00;100502.31;4970756;28;20515;-66
2023/04/23 06:11:52;;;;;;;19.58;17.58;;;;;;;9.24;100.00;100512.25;4967805;28;20511;-66
2023/04/23 06:14:17;;;;;;;19.38;16.08;;;;;;;9.36;100.00;100501.41;4979717;28;20025;-66
2023/04/23 06:16:42;;;;;;;17.40;15.60;;;;;;;9.48;100.00;100500.91;4984032;28;20517;-66
2023/04/23 06:19:08;;;;;;;15.95;14.45;;;;;;;9.55;100.00;100504.56;4987312;28;20027;-66
2023/04/23 06:21:33;;;;;;;18.38;16.48;;;;;;;9.70;100.00;100490.34;4966691;28;20054;-66
2023/04/23 06:23:58;;;;;;;17.55;15.90;;;;;;;9.85;100.00;100489.94;4954244;28;20031;-66
2023/04/23 06:26:23;;;;;;;15.68;13.57;;;;;;;9.97;100.00;100489.41;4963217;28;20018;-66
2023/04/23 06:28:49;;;;;;;15.75;14.18;;;;;;;10.13;100.00;100490.72;4953686;28;20042;-66
2023/04/23 06:31:14;;;;;;;15.57;14.00;;;;;;;10.24;100.00;100479.78;4962897;28;20122;-66
2023/04/23 06:33:40;;;;;;;15.43;13.93;;;;;;;10.35;100.00;100480.06;4955858;28;20538;-66
2023/04/23 06:36:08;;;;;;;16.42;13.55;;;;;;;10.48;100.00;100477.03;4959855;28;20121;-66
2023/04/23 06:38:33;;;;;;;13.68;12.40;;;;;;;10.53;100.00;100479.72;4965633;28;20031;-66
2023/04/23 06:40:58;;;;;;;13.27;12.07;;;;;;;10.63;100.00;100476.53;4955741;28;20047;-66
2023/04/23 06:43:24;;;;;;;12.15;11.05;;;;;;;10.68;100.00;100477.56;4963522;28;20022;-66
2023/04/23 06:45:49;;;;;;;11.90;10.80;;;;;;;10.81;100.00;100481.31;4957579;28;20038;-66
2023/04/23 06:48:15;;;;;;;11.30;10.20;;;;;;;10.95;100.00;100474.72;4951315;28;20038;-66
2023/04/23 06:50:41;;;;;;;12.68;11.23;;;;;;;11.11;100.00;100476.88;4960172;28;20029;-67
2023/04/23 06:53:06;;;;;;;10.80;9.23;;;;;;;11.21;100.00;100475.34;4961648;28;20038;-67
2023/04/23 06:55:31;;;;;;;9.65;8.68;;;;;;;11.28;100.00;100479.84;4961990;28;20049;-66
2023/04/23 06:57:57;;;;;;;9.77;8.82;;;;;;;11.39;100.00;100466.22;4953551;28;20619;-66
2023/04/23 07:00:23;;;;;;;8.85;7.88;;;;;;;11.47;100.00;100469.91;4951903;28;20543;-66
2023/04/23 07:02:48;;;;;;;10.25;8.75;;;;;;;11.69;100.00;100472.09;4959011;28;20257;-67
2023/04/23 07:05:14;;;;;;;9.95;8.43;;;;;;;11.81;100.00;100481.84;4947601;28;20667;-66
2023/04/23 07:07:41;;;;;;;9.07;8.20;;;;;;;11.97;100.00;100483.03;4955601;28;20026;-66
2023/04/23 07:10:08;;;;;;;8.70;7.57;;;;;;;12.19;100.00;100468.81;4965571;28;20054;-66
2023/04/23 07:12:33;;;;;;;8.40;6.80;;;;;;;12.29;100.00;100467.25;4963777;28;20495;-66
2023/04/23 07:14:58;;;;;;;8.75;6.50;;;;;;;12.50;100.00;100463.31;4949344;28;20173;-67
2023/04/23 07:17:24;;;;;;;9.50;6.82;;;;;;;12.65;100.00;100467.00;4954060;28;20059;-67
2023/04/23 07:19:50;;;;;;;8.05;6.38;;;;;;;12.82;100.00;100460.41;4952152;28;20027;-67
2023/04/23 07:22:15;;;;;;;6.78;6.03;;;;;;;13.00;100.00;100473.66;4967307;28;20494;-67
2023/04/23 07:24:40;;;;;;;9.70;5.93;;;;;;;13.17;100.00;100466.09;4958003;28;20167;-66
2023/04/23 07:27:06;;;;;;;8.52;6.05;;;;;;;13.23;100.00;100465.34;4961227;28;20045;-67
2023/04/23 07:29:31;;;;;;;7.05;5.72;;;;;;;13.40;100.00;100468.19;4969177;28;20030;-67
2023/04/23 07:31:57;;;;;;;7.00;4.93;;;;;;;13.54;100.00;100471.03;4961596;28;20570;-67
2023/04/23 07:34:22;;;;;;;7.20;5.68;;;;;;;13.93;100.00;100469.81;4958156;28;20038;-66
2023/04/23 07:36:47;;;;;;;7.65;5.95;;;;;;;14.15;100.00;100477.00;4958575;28;20035;-67
2023/04/23 07:39:13;;;;;;;9.63;5.30;;;;;;;14.12;100.00;100466.53;4964967;28;20073;-67
2023/04/23 07:41:38;;;;;;;6.88;5.32;;;;;;;14.34;100.00;100470.25;4974386;28;20074;-67
2023/04/23 07:44:03;;;;;;;7.57;5.07;;;;;;;14.41;100.00;100456.41;4956482;28;20031;-67
2023/04/23 07:46:29;;;;;;;7.68;5.53;;;;;;;14.80;100.00;100457.63;4965299;28;20025;-67
2023/04/23 07:48:54;;;;;;;7.68;4.35;;;;;;;15.12;100.00;100455.31;4959192;28;20031;-67
2023/04/23 07:51:21;;;;;;;6.43;4.72;;;;;;;15.40;100.00;100453.75;4963993;28;20033;-67
2023/04/23 07:53:48;;;;;;;8.52;5.03;;;;;;;15.45;97.67;100452.88;4956047;28;20055;-67
2023/04/23 07:56:13;;;;;;;6.40;4.25;;;;;;;15.67;98.85;100449.53;4964461;28;20026;-67
2023/04/23 07:58:38;;;;;;;7.72;3.97;;;;;;;15.57;99.11;100452.09;4962387;28;20042;-67
2023/04/23 08:01:04;;;;;;;10.30;4.57;;;;;;;15.71;98.58;100451.28;4965624;28;20029;-66
2023/04/23 08:03:29;;;;;;;5.65;3.75;;;;;;;15.80;97.27;100448.72;4962528;28;20043;-67
2023/04/23 08:05:55;;;;;;;6.63;3.45;;;;;;;16.07;98.46;100452.31;4973799;28;20029;-67
2023/04/23 08:08:20;;;;;;;11.02;4.15;;;;;;;16.31;96.62;100447.16;4961423;28;20026;-68
2023/04/23 08:10:46;;;;;;;5.72;3.42;;;;;;;16.42;95.25;100447.16;4968848;28;20018;-67
2023/04/23 08:13:11;;;;;;;6.40;3.03;;;;;;;16.44;91.43;100441.06;4961997;28;20035;-67
2023/04/23 08:15:36;;;;;;;6.38;3.55;;;;;;;16.55;88.72;100442.81;4969685;28;20499;-67
2023/04/23 08:18:03;;;;;;;6.25;3.15;;;;;;;16.47;89.28;100437.59;4968251;28;20066;-67
2023/04/23 08:20:28;;;;;;;7.07;2.70;;;;;;;16.46;87.80;100442.81;4979383;28;20114;-68
2023/04/23 08:22:54;;;;;;;7.30;2.90;;;;;;;16.24;87.91;100438.44;4957895;28;20041;-67
2023/04/23 08:25:20;;;;;;;7.70;2.70;;;;;;;16.32;87.83;100435.81;4967462;28;20051;-67
2023/04/23 08:27:45;;;;;;;7.10;2.95;;;;;;;16.38;89.35;100428.00;4954006;28;20474;-67
2023/04/23 08:30:11;;;;;;;4.05;2.35;;;;;;;16.59;86.25;100430.59;4955900;28;20507;-67
2023/04/23 08:32:38;;;;;;;7.85;2.40;;;;;;;16.60;84.71;100414.94;4954265;28;20039;-67
2023/04/23 08:35:04;;;;;;;7.57;3.00;;;;;;;16.88;85.42;100411.41;4966392;28;20031;-67
2023/04/23 08:37:29;;;;;;;3.88;2.50;;;;;;;17.09;86.80;100417.50;4952893;28;20045;-67
2023/04/23 08:39:54;;;;;;;9.55;2.38;;;;;;;17.29;83.06;100420.09;4962194;28;20038;-67
2023/04/23 08:42:29;;;;;;;7.68;2.40;;;;;;;17.47;85.75;100421.78;4953003;28;20035;-67
2023/04/23 08:44:55;;;;;;;6.35;2.30;;;;;;;17.61;80.63;100431.38;4952238;28;20027;-67
2023/04/23 08:47:24;;;;;;;6.68;2.47;;;;;;;17.65;80.34;100427.84;4958617;28;20039;-67
2023/04/23 08:49:53;;;;;;;5.57;2.10;;;;;;;17.56;79.51;100423.50;4967209;28;20031;-67
2023/04/23 08:52:23;;;;;;;5.50;2.42;;;;;;;17.40;76.90;100422.69;4952869;28;20035;-67
2023/04/23 08:54:51;;;;;;;7.13;2.00;;;;;;;17.25;77.99;100424.47;4962524;28;20035;-67
2023/04/23 08:57:16;;;;;;;8.27;2.28;;;;;;;16.97;74.95;100419.25;4967047;28;20026;-68
2023/04/23 08:59:43;;;;;;;3.78;2.15;;;;;;;16.86;78.03;100415.78;4961649;28;20494;-67
2023/04/23 09:02:09;;;;;;;6.63;2.15;;;;;;;16.80;80.42;100420.16;4976176;28;20031;-67
2023/04/23 09:04:37;;;;;;;6.55;1.67;;;;;;;16.72;77.66;100424.50;4964811;28;20105;-67
2023/04/23 09:07:03;;;;;;;9.90;2.13;;;;;;;16.80;79.41;100417.53;4967678;28;20046;-67
2023/04/23 09:09:29;;;;;;;5.55;1.90;;;;;;;17.04;80.73;100420.13;4953168;28;20073;-67
2023/04/23 09:11:56;;;;;;;5.97;1.75;;;;;;;17.02;78.08;100419.25;4959351;28;20093;-68
2023/04/23 09:14:24;;;;;;;5.07;1.55;;;;;;;17.04;76.98;100421.00;4959751;28;20027;-67
2023/04/23 09:16:49;;;;;;;5.60;1.90;;;;;;;16.97;79.24;100419.25;4967179;28;20060;-67
2023/04/23 09:19:17;;;;;;;6.72;1.92;;;;;;;16.91;78.43;100414.03;4955074;28;20039;-67
2023/04/23 09:21:43;;;;;;;5.05;1.70;;;;;;;16.97;78.21;100411.41;4975596;28;20054;-67
2023/04/23 09:24:13;;;;;;;7.82;2.10;;;;;;;16.87;76.85;100412.31;4967743;28;20033;-67
2023/04/23 09:26:47;;;;;;;4.10;1.60;;;;;;;16.89;75.27;100410.56;4973703;28;20030;-67
2023/04/23 09:29:17;;;;;;;4.75;1.45;;;;;;;17.04;75.20;100400.06;4978145;28;20042;-67
2023/04/23 09:31:48;;;;;;;6.30;1.65;;;;;;;17.20;74.60;100402.66;4977111;28;20030;-67
2023/04/23 09:34:17;;;;;;;8.32;1.75;;;;;;;17.31;74.04;100397.41;4973097;28;20026;-67
2023/04/23 09:36:43;;;;;;;5.32;1.90;;;;;;;17.43;72.32;100399.09;4976867;28;20037;-67
2023/04/23 09:39:17;;;;;;;4.90;1.40;;;;;;;17.46;70.64;100391.25;4979101;28;20026;-67
2023/04/23 09:41:45;;;;;;;5.43;1.60;;;;;;;17.48;67.80;100399.97;4982969;28;20030;-68
2023/04/23 09:44:13;;;;;;;4.85;1.48;;;;;;;17.56;67.96;100399.09;4974331;28;20027;-67
2023/04/23 09:46:41;;;;;;;4.60;1.40;;;;;;;17.56;65.50;100402.56;4954546;28;20023;-67
2023/04/23 09:49:07;;;;;;;6.00;1.50;;;;;;;17.64;65.94;100386.81;4983333;28;20033;-67
2023/04/23 09:51:39;;;;;;;4.40;1.33;;;;;;;17.60;65.91;100388.56;4988423;28;20121;-67
2023/04/23 09:54:17;;;;;;;6.63;1.90;;;;;;;17.44;66.49;100395.63;4967753;28;20395;-67
2023/04/23 09:56:44;;;;;;;3.60;1.30;;;;;;;16.99;66.08;100391.34;4974982;28;20058;-68
2023/04/23 09:59:23;;;;;;;3.28;1.10;;;;;;;16.74;69.73;100386.16;4978551;28;20030;-67
2023/04/23 10:01:48;;;;;;;5.55;1.63;;;;;;;16.67;70.48;100392.25;4976433;28;20022;-67
2023/04/23 10:04:18;;;;;;;3.83;1.17;;;;;;;16.50;70.29;100382.66;4978402;28;20419;-67
2023/04/23 10:06:44;;;;;;;3.93;1.33;;;;;;;16.40;72.24;100392.25;4979247;28;20030;-67
2023/04/23 10:09:09;;;;;;;5.72;1.67;;;;;;;16.33;72.57;100380.91;4973312;28;20277;-67
2023/04/23 10:11:35;;;;;;;5.45;1.13;;;;;;;16.27;72.13;100380.91;4975355;28;20038;-67
2023/04/23 10:14:01;;;;;;;4.80;1.70;;;;;;;16.03;72.09;100377.38;4956718;28;20034;-67
2023/04/23 10:16:27;;;;;;;6.30;1.10;;;;;;;15.99;73.75;100369.53;4967673;28;20049;-67
2023/04/23 10:18:54;;;;;;;5.55;1.35;;;;;;;15.98;75.07;100373.88;4956501;28;20555;-67
2023/04/23 10:21:25;;;;;;;4.80;1.50;;;;;;;15.89;75.40;100368.63;4965772;28;20682;-67
2023/04/23 10:23:50;;;;;;;5.43;1.17;;;;;;;16.04;76.28;100373.94;4958984;28;20030;-68
2023/04/23 10:26:17;;;;;;;4.75;1.60;;;;;;;16.16;77.30;100380.91;4965883;28;20022;-67
2023/04/23 10:28:46;;;;;;;3.83;1.45;;;;;;;16.35;76.49;100373.09;4961672;28;20045;-67
2023/04/23 10:31:12;;;;;;;4.88;1.55;;;;;;;16.41;76.62;100373.06;4960732;28;20027;-68
2023/04/23 10:33:39;;;;;;;5.25;1.63;;;;;;;16.30;74.15;100365.22;4961175;28;20047;-67
2023/04/23 10:36:06;;;;;;;4.78;1.55;;;;;;;16.41;77.95;100361.75;4961786;28;20018;-67
2023/04/23 10:38:31;;;;;;;6.82;1.58;;;;;;;16.36;75.50;100358.25;4973617;28;20149;-68
2023/04/23 10:40:58;;;;;;;4.68;1.48;;;;;;;16.16;73.99;100365.22;4961848;28;20092;-68
2023/04/23 10:43:24;;;;;;;6.00;1.50;;;;;;;16.06;75.00;100368.69;4962898;28;20027;-67
2023/04/23 10:45:49;;;;;;;2.97;1.00;;;;;;;15.84;76.00;100356.44;4960341;28;20479;-68
2023/04/23 10:48:15;;;;;;;3.15;1.38;;;;;;;15.82;78.25;100350.31;4964443;28;20034;-67
2023/04/23 10:50:43;;;;;;;3.00;1.60;;;;;;;15.89;77.67;100352.94;4962182;28;20065;-67
2023/04/23 10:53:17;;;;;;;6.70;1.85;;;;;;;15.92;78.14;100347.75;4969062;28;20037;-68
2023/04/23 10:55:43;;;;;;;2.65;1.33;;;;;;;15.85;74.99;100339.00;4963418;28;20037;-67
2023/04/23 10:58:08;;;;;;;4.90;1.70;;;;;;;15.90;75.91;100333.81;4968578;28;20042;-67
2023/04/23 11:00:40;;;;;;;2.60;1.33;;;;;;;15.90;75.09;100339.88;4960320;28;20037;-67
2023/04/23 11:03:34;;;;;;;2.20;0.93;;;;;;;15.94;76.60;100330.31;4963976;28;20549;-67
2023/04/23 11:06:01;;;;;;;5.75;1.63;;;;;;;16.05;77.30;100323.38;4954283;28;20030;-67
2023/04/23 11:08:28;;;;;;;4.07;1.52;;;;;;;16.07;78.80;100328.63;4962672;28;20073;-67